createdAt,value
2023-05-19T00:00:00.884Z,100008.97
2023-05-19T00:02:42.747Z,99996.56
2023-05-19T00:08:14.144Z,99989.09
2023-05-19T00:11:03.794Z,99990.91
2023-05-19T00:13:55.996Z,99999.94
2023-05-19T00:16:29.817Z,99991.69
2023-05-19T00:19:38.715Z,99984.97
2023-05-19T00:22:11.581Z,99984.19
2023-05-19T00:24:44.647Z,99977.50
2023-05-19T00:27:19.655Z,99987.28
2023-05-19T00:29:50.230Z,99990.16
2023-05-19T00:35:19.638Z,99986.03
2023-05-19T00:37:56.331Z,99975.97
2023-05-19T00:40:26.065Z,99987.03
2023-05-19T00:42:56.582Z,99983.44
2023-05-19T00:45:46.348Z,99998.38
2023-05-19T00:48:24.061Z,100000.44
2023-05-19T00:51:04.702Z,99992.22
2023-05-19T00:53:48.710Z,99982.16
2023-05-19T00:56:20.878Z,99988.59
2023-05-19T00:58:52.145Z,99980.06
2023-05-19T01:01:22.531Z,99982.66
2023-05-19T01:04:04.977Z,99980.34
2023-05-19T01:06:39.219Z,99983.44
2023-05-19T01:09:09.206Z,99982.41
2023-05-19T01:11:41.059Z,99980.84
2023-05-19T01:14:19.349Z,99981.63
2023-05-19T01:16:56.706Z,99978.28
2023-05-19T01:19:39.963Z,99977.75
2023-05-19T01:22:41.158Z,99981.34
2023-05-19T01:26:14.860Z,99970.28
2023-05-19T01:29:07.515Z,99978.25
2023-05-19T01:31:47.806Z,99973.88
2023-05-19T01:34:18.915Z,99972.31
2023-05-19T01:36:50.610Z,99974.63
2023-05-19T01:39:21.275Z,99972.34
2023-05-19T01:41:52.907Z,99967.41
2023-05-19T01:44:25.159Z,99972.84
2023-05-19T01:46:56.337Z,99970.75
2023-05-19T01:49:41.601Z,99967.66
2023-05-19T01:52:10.542Z,99970.75
2023-05-19T01:54:39.124Z,99969.44
2023-05-19T01:57:20.078Z,99972.28
2023-05-19T01:59:59.711Z,99972.28
2023-05-19T02:02:40.171Z,99988.47
2023-05-19T02:05:20.188Z,99991.53
2023-05-19T02:08:06.685Z,99984.56
2023-05-19T02:10:41.698Z,99981.75
2023-05-19T02:13:25.735Z,99983.00
2023-05-19T02:16:08.443Z,99976.22
2023-05-19T02:19:00.507Z,99984.72
2023-05-19T02:21:34.230Z,99985.47
2023-05-19T02:24:14.456Z,99986.19
2023-05-19T02:26:48.973Z,99987.44
2023-05-19T02:29:18.132Z,99981.56
2023-05-19T02:31:53.228Z,99976.13
2023-05-19T02:34:28.789Z,99981.22
2023-05-19T02:36:57.822Z,99983.78
2023-05-19T02:39:35.301Z,99982.28
2023-05-19T02:44:57.535Z,99974.03
2023-05-19T02:47:36.116Z,99974.53
2023-05-19T02:50:11.060Z,99984.56
2023-05-19T02:52:50.274Z,99982.78
2023-05-19T02:55:18.979Z,99977.91
2023-05-19T02:57:53.725Z,99989.97
2023-05-19T03:00:25.341Z,99982.47
2023-05-19T03:03:02.939Z,99972.19
2023-05-19T03:05:37.411Z,99972.97
2023-05-19T03:08:09.433Z,99975.53
2023-05-19T03:10:49.713Z,99971.19
2023-05-19T03:13:23.975Z,99979.44
2023-05-19T03:15:57.122Z,99972.78
2023-05-19T03:18:30.311Z,99967.13
2023-05-19T03:21:04.468Z,99969.50
2023-05-19T03:23:49.099Z,99960.47
2023-05-19T03:26:20.801Z,99967.44
2023-05-19T03:28:49.828Z,99963.06
2023-05-19T03:31:18.506Z,99963.34
2023-05-19T03:33:50.422Z,99985.50
2023-05-19T03:36:32.387Z,99976.00
2023-05-19T03:39:04.146Z,99993.25
2023-05-19T03:41:33.082Z,99994.03
2023-05-19T03:44:02.163Z,99994.56
2023-05-19T03:46:33.577Z,99989.16
2023-05-19T03:49:04.701Z,99992.53
2023-05-19T03:54:21.229Z,99980.38
2023-05-19T03:59:54.304Z,99983.00
2023-05-19T04:02:28.695Z,99989.19
2023-05-19T04:05:14.284Z,99984.03
2023-05-19T04:08:03.631Z,99986.09
2023-05-19T04:15:08.820Z,100000.09
2023-05-19T04:18:11.214Z,99998.03
2023-05-19T04:21:01.377Z,100000.66
2023-05-19T04:23:34.750Z,99988.78
2023-05-19T04:26:06.901Z,99989.31
2023-05-19T04:29:00.758Z,99997.34
2023-05-19T04:31:54.583Z,100004.78
2023-05-19T04:34:26.339Z,99999.63
2023-05-19T04:37:00.044Z,100009.72
2023-05-19T04:42:30.929Z,100007.66
2023-05-19T04:45:03.843Z,99996.06
2023-05-19T04:47:38.304Z,100007.41
2023-05-19T04:50:23.986Z,99994.25
2023-05-19T04:53:22.030Z,100016.44
2023-05-19T04:55:54.494Z,100005.06
2023-05-19T04:58:28.645Z,99999.16
2023-05-19T05:01:06.480Z,100004.00
2023-05-19T05:03:36.672Z,100001.44
2023-05-19T05:06:07.820Z,100004.22
2023-05-19T05:08:42.489Z,100007.81
2023-05-19T05:11:18.958Z,100000.06
2023-05-19T05:14:11.596Z,100045.84
2023-05-19T05:16:44.403Z,99981.72
2023-05-19T05:19:28.675Z,99998.91
2023-05-19T05:21:58.505Z,99986.78
2023-05-19T05:24:28.741Z,99999.06
2023-05-19T05:27:05.834Z,99981.00
2023-05-19T05:29:45.984Z,100013.34
2023-05-19T05:32:26.910Z,100005.09
2023-05-19T05:35:03.139Z,100002.22
2023-05-19T05:37:49.084Z,100020.75
2023-05-19T05:40:20.014Z,99994.88
2023-05-19T05:42:54.781Z,100019.75
2023-05-19T05:45:47.320Z,100009.41
2023-05-19T05:48:19.137Z,100013.69
2023-05-19T05:51:07.676Z,100000.53
2023-05-19T05:56:34.433Z,100007.56
2023-05-19T05:59:10.040Z,100003.59
2023-05-19T06:01:42.297Z,100012.97
2023-05-19T06:04:23.720Z,100027.03
2023-05-19T06:07:01.229Z,100033.38
2023-05-19T06:09:39.087Z,100027.31
2023-05-19T06:12:15.321Z,100032.34
2023-05-19T06:15:03.453Z,100026.59
2023-05-19T06:17:35.997Z,100022.84
2023-05-19T06:20:06.071Z,100046.28
2023-05-19T06:22:39.415Z,100034.59
2023-05-19T06:25:10.283Z,100037.91
2023-05-19T06:27:39.268Z,100048.63
2023-05-19T06:30:13.969Z,100051.59
2023-05-19T06:32:43.816Z,100045.00
2023-05-19T06:35:13.279Z,100050.06
2023-05-19T06:37:42.283Z,100050.25
2023-05-19T06:40:16.303Z,100044.63
2023-05-19T06:42:45.101Z,100047.72
2023-05-19T06:45:22.005Z,100052.41
2023-05-19T06:47:54.427Z,100054.94
2023-05-19T06:50:28.072Z,100047.75
2023-05-19T06:53:39.133Z,100052.75
2023-05-19T06:56:11.573Z,100057.19
2023-05-19T06:58:40.089Z,100064.03
2023-05-19T07:01:15.559Z,100059.88
2023-05-19T07:03:47.932Z,100061.81
2023-05-19T07:06:17.190Z,100068.81
2023-05-19T07:08:56.142Z,100069.47
2023-05-19T07:11:26.540Z,100062.25
2023-05-19T07:13:55.531Z,100060.00
2023-05-19T07:16:29.437Z,100063.06
2023-05-19T07:18:58.461Z,100066.34
2023-05-19T07:21:30.943Z,100062.41
2023-05-19T07:24:02.677Z,100063.41
2023-05-19T07:26:33.927Z,100060.69
2023-05-19T07:29:02.780Z,100064.25
2023-05-19T07:31:33.096Z,100062.75
2023-05-19T07:34:01.870Z,100063.25
2023-05-19T07:36:30.751Z,100057.44
2023-05-19T07:38:59.728Z,100060.38
2023-05-19T07:41:28.931Z,100066.09
2023-05-19T07:43:59.634Z,100061.69
2023-05-19T07:46:35.598Z,100053.28
2023-05-19T07:49:06.997Z,100057.28
2023-05-19T07:51:35.828Z,100065.59
2023-05-19T07:54:04.745Z,100066.53
2023-05-19T07:56:36.731Z,100065.34
2023-05-19T07:59:05.438Z,100068.47
2023-05-19T08:01:33.939Z,100056.69
2023-05-19T08:04:02.667Z,100067.72
2023-05-19T08:06:35.717Z,100064.97
2023-05-19T08:09:07.046Z,100065.50
2023-05-19T08:11:37.192Z,100056.94
2023-05-19T08:14:08.066Z,100063.38
2023-05-19T08:16:40.139Z,100064.97
2023-05-19T08:19:11.784Z,100065.56
2023-05-19T08:21:42.676Z,100060.56
2023-05-19T08:24:14.864Z,100063.47
2023-05-19T08:26:45.242Z,100063.31
2023-05-19T08:29:26.390Z,100061.94
2023-05-19T08:32:33.207Z,100061.16
2023-05-19T08:35:02.665Z,100044.47
2023-05-19T08:37:37.400Z,100045.53
2023-05-19T08:40:07.140Z,100056.41
2023-05-19T08:50:06.373Z,100046.38
2023-05-19T08:52:58.967Z,100056.94
2023-05-19T08:56:14.957Z,100037.41
2023-05-19T08:59:30.119Z,100046.06
2023-05-19T09:02:50.345Z,100055.66
2023-05-19T09:05:33.959Z,100035.31
2023-05-19T09:08:05.578Z,100036.84
2023-05-19T09:10:34.430Z,100053.41
2023-05-19T09:13:38.919Z,100051.97
2023-05-19T09:16:08.498Z,100050.13
2023-05-19T09:18:58.579Z,100045.31
2023-05-19T09:21:37.679Z,100042.66
2023-05-19T09:24:08.109Z,100045.03
2023-05-19T09:26:40.996Z,100043.13
2023-05-19T09:29:36.295Z,100034.88
2023-05-19T09:32:15.292Z,100043.09
2023-05-19T09:35:00.052Z,100033.91
2023-05-19T09:37:49.556Z,100033.38
2023-05-19T09:40:42.918Z,100025.56
2023-05-19T09:43:17.486Z,100018.06
2023-05-19T09:56:29.418Z,100047.38
2023-05-19T09:59:34.232Z,100032.66
2023-05-19T10:02:33.224Z,100017.25
2023-05-19T10:05:20.621Z,100025.56
2023-05-19T10:08:30.315Z,100012.53
2023-05-19T10:11:28.208Z,100007.94
2023-05-19T10:13:59.837Z,100006.19
2023-05-19T10:16:38.092Z,100003.25
2023-05-19T10:19:48.344Z,100003.00
2023-05-19T10:23:19.482Z,100005.94
2023-05-19T10:26:45.755Z,100012.56
2023-05-19T10:29:44.226Z,99995.63
2023-05-19T10:32:53.364Z,99985.50
2023-05-19T10:36:24.060Z,100001.56
2023-05-19T10:42:28.063Z,100004.09
2023-05-19T10:45:14.261Z,99993.25
2023-05-19T10:48:00.519Z,99980.88
2023-05-19T10:51:29.861Z,99983.53
2023-05-19T10:54:41.664Z,99971.09
2023-05-19T10:57:38.393Z,99977.72
2023-05-19T11:00:29.269Z,99972.94
2023-05-19T11:03:27.032Z,99966.66
2023-05-19T11:10:08.021Z,99974.78
2023-05-19T11:12:58.190Z,99972.88
2023-05-19T11:15:49.562Z,99971.72
2023-05-19T11:18:26.772Z,99959.59
2023-05-19T11:31:04.348Z,99963.06
2023-05-19T11:33:37.188Z,99973.97
2023-05-19T11:36:44.660Z,99964.34
2023-05-19T11:39:28.591Z,99979.41
2023-05-19T11:41:58.000Z,99964.50
2023-05-19T11:44:39.714Z,99964.91
2023-05-19T13:02:34.183Z,99864.34
2023-05-19T13:05:41.353Z,99879.50
2023-05-19T13:08:30.428Z,99881.47
2023-05-19T13:11:23.192Z,99883.13
2023-05-19T13:14:22.900Z,99850.44
2023-05-19T13:17:28.696Z,99872.88
2023-05-19T13:20:09.850Z,99867.56
2023-05-19T13:22:44.868Z,99878.53
2023-05-19T13:28:40.266Z,99854.38
2023-05-19T13:31:41.480Z,99858.53
2023-05-19T13:34:44.250Z,99830.56
2023-05-19T13:37:23.194Z,99832.97
2023-05-19T13:39:53.742Z,99824.41
2023-05-19T13:42:25.486Z,99834.34
2023-05-19T13:44:57.107Z,99837.03
2023-05-19T13:47:43.336Z,99803.38
2023-05-19T13:50:17.804Z,99796.59
2023-05-19T13:53:03.506Z,99813.22
2023-05-19T13:55:48.216Z,99816.31
2023-05-19T13:58:38.780Z,99803.50
2023-05-19T14:01:36.530Z,99792.16
2023-05-19T14:04:08.930Z,99786.50
2023-05-19T14:06:47.979Z,99798.59
2023-05-19T14:12:15.814Z,99811.81
2023-05-19T14:14:44.692Z,99828.09
2023-05-19T14:17:14.018Z,99839.06
2023-05-19T14:19:48.165Z,99840.56
2023-05-19T14:22:21.592Z,99802.81
2023-05-19T14:28:33.502Z,99826.16
2023-05-19T14:34:45.898Z,99830.03
2023-05-19T14:37:24.363Z,99847.44
2023-05-19T14:40:01.005Z,99829.97
2023-05-19T14:42:35.612Z,99834.75
2023-05-19T14:45:36.048Z,99847.34
2023-05-19T14:48:40.292Z,99836.19
2023-05-19T14:51:09.441Z,99826.88
2023-05-19T14:53:42.797Z,99824.69
2023-05-19T14:56:22.475Z,99816.41
2023-05-19T14:59:00.053Z,99813.44
2023-05-19T15:01:41.421Z,99836.47
2023-05-19T15:04:20.659Z,99814.59
2023-05-19T15:12:51.437Z,99821.78
2023-05-19T15:22:56.613Z,99804.00
2023-05-19T15:26:27.522Z,99819.09
2023-05-19T15:29:49.883Z,99804.75
2023-05-19T15:39:50.917Z,99809.22
2023-05-19T15:49:36.463Z,99789.44
2023-05-19T15:52:08.612Z,99812.84
2023-05-19T15:54:40.301Z,99810.88
2023-05-19T15:57:13.671Z,99811.91
2023-05-19T15:59:43.502Z,99805.41
2023-05-19T16:02:13.228Z,99818.97
2023-05-19T16:04:43.580Z,99821.19
2023-05-19T16:07:12.992Z,99820.34
2023-05-19T16:09:42.283Z,99827.06
2023-05-19T16:12:12.008Z,99811.94
2023-05-19T16:14:43.768Z,99823.16
2023-05-19T16:17:13.889Z,99818.19
2023-05-19T16:19:44.259Z,99817.00
2023-05-19T16:25:52.395Z,99810.41
2023-05-19T16:32:33.899Z,99822.69
2023-05-19T16:36:23.450Z,99835.06
2023-05-19T16:46:52.464Z,99833.56
2023-05-19T16:49:34.666Z,99840.69
2023-05-19T16:52:13.884Z,99842.03
2023-05-19T16:54:42.436Z,99844.19
2023-05-19T16:57:14.420Z,99846.09
2023-05-19T16:59:43.398Z,99841.84
2023-05-19T17:02:12.873Z,99842.88
2023-05-19T17:04:41.886Z,99850.66
2023-05-19T17:07:19.966Z,99853.16
2023-05-19T17:09:49.282Z,99851.94
2023-05-19T17:12:20.707Z,99859.31
2023-05-19T17:14:50.517Z,99863.38
2023-05-19T17:17:19.701Z,99871.88
2023-05-19T17:19:48.863Z,99884.50
2023-05-19T17:22:21.743Z,99880.66
2023-05-19T17:24:50.625Z,99880.50
2023-05-19T17:27:19.653Z,99885.22
2023-05-19T17:29:48.668Z,99885.13
2023-05-19T17:32:17.227Z,99880.06
2023-05-19T17:34:46.224Z,99884.09
2023-05-19T17:37:17.624Z,99880.56
2023-05-19T17:39:48.293Z,99889.06
2023-05-19T17:42:17.178Z,99882.88
2023-05-19T17:44:46.061Z,99884.59
2023-05-19T17:47:20.759Z,99889.72
2023-05-19T17:49:50.337Z,99925.34
2023-05-19T17:52:19.313Z,99898.75
2023-05-19T17:54:51.351Z,99900.81
2023-05-19T17:57:25.552Z,99886.31
2023-05-19T17:59:54.900Z,99898.28
2023-05-19T18:02:24.246Z,99898.03
2023-05-19T18:04:54.335Z,99899.38
2023-05-19T18:07:28.320Z,99899.53
2023-05-19T18:10:02.069Z,99901.22
2023-05-19T18:12:33.836Z,99907.00
2023-05-19T18:15:03.003Z,99904.09
